Karen Ann — WDH3163 — position and weather

sailwx.info

Track history (hours):
 
Tides and Currents Weather Stations Pressure Air Temp Water Temp Dewpoint Dewpoint Depression Visibility Wind Speed Wind Dir Waves Ship Positions

Karen Ann

Owner: LeBeouf Bros. Towing, LLC, Houma, LA. More information available from US FCC via Universal Licensing System and Coast Guard Vessel Documentation Center.

Last reported at 2018-May-09 13:16 UTC. Time now 2018-May-24 08:12 UTC.
Position N 32°37' W 091°09'.
Warning: this ship's position is 14 days out of date.

Length 34 m; draft 2.9 m.

Type: Towing. MMSI: 367604920.

Date/timePositionNaut miles runAvg speedWind from/ knotsBaromVisibWave heightAir tempDewpointWater temp
2018-May-09 13:16N 32°37' W 091°09'1 5.1
2018-May-09 13:00N 32°36' W 091°08'2 4.9
2018-May-09 12:31N 32°34' W 091°06'3 5.1
2018-May-09 12:00N 32°31' W 091°06'3 5.4
2018-May-09 11:31N 32°29' W 091°07'3 5.1
2018-May-09 11:01N 32°27' W 091°04'2 4.9
2018-May-09 10:31N 32°26' W 091°02'2 4.7
2018-May-09 10:01N 32°25' W 090°59'2 4.8
2018-May-09 09:31N 32°22' W 091°00'2 3.5
2018-May-09 09:00N 32°21' W 090°59'2 3.4
2018-May-09 08:30N 32°21' W 090°57'2 4.4
2018-May-09 08:01N 32°20' W 090°54'2 4.4
2018-May-09 07:30N 32°18' W 090°55'2 4.7
2018-May-09 07:00N 32°16' W 090°57'2 4.9
2018-May-09 06:31N 32°14' W 090°59'3 5.0
2018-May-09 06:00N 32°12' W 090°59'2 4.4
2018-May-09 05:30N 32°10' W 091°00'2 4.0
2018-May-09 05:00N 32°08' W 091°01'2 3.9
2018-May-09 04:30N 32°08' W 091°03'2 4.3
2018-May-09 04:00N 32°08' W 091°06'2 3.2
2018-May-09 03:31N 32°06' W 091°06'3 5.3
2018-May-09 03:00N 32°04' W 091°04'3 4.4
2018-May-09 02:23N 32°02' W 091°04'  
2018-May-01 07:47N 29°57' W 090°23'0 0.0
2018-May-01 07:30N 29°57' W 090°23'0 0.0
2018-May-01 06:24N 29°57' W 090°23'  
Track history (hours):
 
Tides and Currents Weather Stations Pressure Air Temp Water Temp Dewpoint Dewpoint Depression Visibility Wind Speed Wind Dir Waves Ship Positions

Karen Ann

Owner: LeBeouf Bros. Towing, LLC, Houma, LA. More information available from US FCC via Universal Licensing System and Coast Guard Vessel Documentation Center.

Last reported at 2018-May-09 13:16 UTC. Time now 2018-May-24 08:12 UTC.
Position N 32°37' W 091°09'.
Warning: this ship's position is 14 days out of date.

Length 34 m; draft 2.9 m.

Type: Towing. MMSI: 367604920.

Date/timePositionNaut miles runAvg speedWind from/ knotsBaromVisibWave heightAir tempDewpointWater temp
2018-May-09 13:16N 32°37' W 091°09'1 5.1
2018-May-09 13:00N 32°36' W 091°08'2 4.9
2018-May-09 12:31N 32°34' W 091°06'3 5.1
2018-May-09 12:00N 32°31' W 091°06'3 5.4
2018-May-09 11:31N 32°29' W 091°07'3 5.1
2018-May-09 11:01N 32°27' W 091°04'2 4.9
2018-May-09 10:31N 32°26' W 091°02'2 4.7
2018-May-09 10:01N 32°25' W 090°59'2 4.8
2018-May-09 09:31N 32°22' W 091°00'2 3.5
2018-May-09 09:00N 32°21' W 090°59'2 3.4
2018-May-09 08:30N 32°21' W 090°57'2 4.4
2018-May-09 08:01N 32°20' W 090°54'2 4.4
2018-May-09 07:30N 32°18' W 090°55'2 4.7
2018-May-09 07:00N 32°16' W 090°57'2 4.9
2018-May-09 06:31N 32°14' W 090°59'3 5.0
2018-May-09 06:00N 32°12' W 090°59'2 4.4
2018-May-09 05:30N 32°10' W 091°00'2 4.0
2018-May-09 05:00N 32°08' W 091°01'2 3.9
2018-May-09 04:30N 32°08' W 091°03'2 4.3
2018-May-09 04:00N 32°08' W 091°06'2 3.2
2018-May-09 03:31N 32°06' W 091°06'3 5.3
2018-May-09 03:00N 32°04' W 091°04'3 4.4
2018-May-09 02:23N 32°02' W 091°04'  
2018-May-01 07:47N 29°57' W 090°23'0 0.0
2018-May-01 07:30N 29°57' W 090°23'0 0.0
2018-May-01 06:24N 29°57' W 090°23'  

Dump ship's entire track history